sensor_id;sensor_type;location;lat;lon;timestamp;P1;durP1;ratioP1;P2;durP2;ratioP2
24383;SDS011;12504;52.870;8.798;2023-06-14T00:00:14;3.97;;;1.83;;
24383;SDS011;12504;52.870;8.798;2023-06-14T00:02:40;3.90;;;2.35;;
24383;SDS011;12504;52.870;8.798;2023-06-14T00:05:06;4.97;;;2.10;;
24383;SDS011;12504;52.870;8.798;2023-06-14T00:07:33;3.45;;;2.10;;
24383;SDS011;12504;52.870;8.798;2023-06-14T00:10:07;5.65;;;2.25;;
24383;SDS011;12504;52.870;8.798;2023-06-14T00:12:34;7.15;;;2.55;;
24383;SDS011;12504;52.870;8.798;2023-06-14T00:15:00;3.38;;;2.10;;
24383;SDS011;12504;52.870;8.798;2023-06-14T00:17:29;4.20;;;2.60;;
24383;SDS011;12504;52.870;8.798;2023-06-14T00:19:56;6.47;;;2.80;;
24383;SDS011;12504;52.870;8.798;2023-06-14T00:22:22;7.13;;;2.70;;
24383;SDS011;12504;52.870;8.798;2023-06-14T00:24:53;4.50;;;2.28;;
24383;SDS011;12504;52.870;8.798;2023-06-14T00:27:19;8.52;;;2.38;;
24383;SDS011;12504;52.870;8.798;2023-06-14T00:29:45;3.58;;;2.35;;
24383;SDS011;12504;52.870;8.798;2023-06-14T00:32:11;4.47;;;2.47;;
24383;SDS011;12504;52.870;8.798;2023-06-14T00:34:36;7.13;;;3.50;;
24383;SDS011;12504;52.870;8.798;2023-06-14T00:37:02;3.80;;;2.38;;
24383;SDS011;12504;52.870;8.798;2023-06-14T00:39:28;9.43;;;2.97;;
24383;SDS011;12504;52.870;8.798;2023-06-14T00:41:54;5.28;;;3.00;;
24383;SDS011;12504;52.870;8.798;2023-06-14T00:44:20;4.40;;;2.80;;
24383;SDS011;12504;52.870;8.798;2023-06-14T00:46:47;5.45;;;2.83;;
24383;SDS011;12504;52.870;8.798;2023-06-14T00:49:14;6.70;;;3.00;;
24383;SDS011;12504;52.870;8.798;2023-06-14T00:51:41;5.85;;;2.75;;
24383;SDS011;12504;52.870;8.798;2023-06-14T00:54:08;6.30;;;2.60;;
24383;SDS011;12504;52.870;8.798;2023-06-14T00:56:36;7.07;;;2.83;;
24383;SDS011;12504;52.870;8.798;2023-06-14T00:59:02;7.40;;;3.33;;
24383;SDS011;12504;52.870;8.798;2023-06-14T01:01:30;6.43;;;3.17;;
24383;SDS011;12504;52.870;8.798;2023-06-14T01:03:59;4.18;;;2.67;;
24383;SDS011;12504;52.870;8.798;2023-06-14T01:09:26;5.32;;;3.38;;
24383;SDS011;12504;52.870;8.798;2023-06-14T01:12:01;4.40;;;2.88;;
24383;SDS011;12504;52.870;8.798;2023-06-14T01:14:37;4.68;;;3.08;;
24383;SDS011;12504;52.870;8.798;2023-06-14T01:17:03;10.75;;;2.92;;
24383;SDS011;12504;52.870;8.798;2023-06-14T01:19:30;8.35;;;4.35;;
24383;SDS011;12504;52.870;8.798;2023-06-14T01:22:00;8.10;;;3.45;;
24383;SDS011;12504;52.870;8.798;2023-06-14T01:24:27;6.72;;;3.30;;
24383;SDS011;12504;52.870;8.798;2023-06-14T01:26:57;4.60;;;2.63;;
24383;SDS011;12504;52.870;8.798;2023-06-14T01:29:26;6.95;;;3.05;;
24383;SDS011;12504;52.870;8.798;2023-06-14T01:31:57;5.20;;;3.03;;
24383;SDS011;12504;52.870;8.798;2023-06-14T01:34:24;7.18;;;3.42;;
24383;SDS011;12504;52.870;8.798;2023-06-14T01:36:50;4.82;;;2.95;;
24383;SDS011;12504;52.870;8.798;2023-06-14T01:39:17;7.93;;;3.50;;
24383;SDS011;12504;52.870;8.798;2023-06-14T01:41:44;14.93;;;3.10;;
24383;SDS011;12504;52.870;8.798;2023-06-14T01:44:11;7.00;;;3.30;;
24383;SDS011;12504;52.870;8.798;2023-06-14T01:46:38;5.88;;;3.00;;
24383;SDS011;12504;52.870;8.798;2023-06-14T01:49:04;6.00;;;3.20;;
24383;SDS011;12504;52.870;8.798;2023-06-14T01:51:32;5.05;;;2.92;;
24383;SDS011;12504;52.870;8.798;2023-06-14T01:53:58;5.13;;;3.50;;
24383;SDS011;12504;52.870;8.798;2023-06-14T01:56:25;7.07;;;3.28;;
24383;SDS011;12504;52.870;8.798;2023-06-14T01:58:52;10.00;;;3.42;;
24383;SDS011;12504;52.870;8.798;2023-06-14T02:01:19;9.00;;;3.90;;
24383;SDS011;12504;52.870;8.798;2023-06-14T02:03:46;6.35;;;3.28;;
24383;SDS011;12504;52.870;8.798;2023-06-14T02:06:15;7.00;;;3.40;;
24383;SDS011;12504;52.870;8.798;2023-06-14T02:08:43;3.78;;;3.38;;
24383;SDS011;12504;52.870;8.798;2023-06-14T02:11:09;6.07;;;3.30;;
24383;SDS011;12504;52.870;8.798;2023-06-14T02:13:35;4.07;;;3.40;;
24383;SDS011;12504;52.870;8.798;2023-06-14T02:16:01;4.00;;;2.88;;
24383;SDS011;12504;52.870;8.798;2023-06-14T02:18:27;6.53;;;3.28;;
24383;SDS011;12504;52.870;8.798;2023-06-14T02:20:54;6.85;;;3.58;;
24383;SDS011;12504;52.870;8.798;2023-06-14T02:23:20;7.30;;;4.10;;
24383;SDS011;12504;52.870;8.798;2023-06-14T02:25:46;5.13;;;3.53;;
24383;SDS011;12504;52.870;8.798;2023-06-14T02:28:12;5.97;;;3.60;;
24383;SDS011;12504;52.870;8.798;2023-06-14T02:30:38;4.80;;;3.30;;
24383;SDS011;12504;52.870;8.798;2023-06-14T02:33:04;9.02;;;3.50;;
24383;SDS011;12504;52.870;8.798;2023-06-14T02:35:31;13.77;;;5.85;;
24383;SDS011;12504;52.870;8.798;2023-06-14T02:37:57;10.15;;;3.80;;
24383;SDS011;12504;52.870;8.798;2023-06-14T02:40:22;4.43;;;3.33;;
24383;SDS011;12504;52.870;8.798;2023-06-14T02:42:48;8.20;;;4.10;;
24383;SDS011;12504;52.870;8.798;2023-06-14T02:45:15;8.55;;;3.67;;
24383;SDS011;12504;52.870;8.798;2023-06-14T02:47:42;4.63;;;3.63;;
24383;SDS011;12504;52.870;8.798;2023-06-14T02:50:07;5.55;;;3.33;;
24383;SDS011;12504;52.870;8.798;2023-06-14T02:52:33;7.70;;;4.30;;
24383;SDS011;12504;52.870;8.798;2023-06-14T02:54:59;6.07;;;3.40;;
24383;SDS011;12504;52.870;8.798;2023-06-14T02:57:25;5.00;;;3.50;;
24383;SDS011;12504;52.870;8.798;2023-06-14T02:59:51;5.00;;;3.33;;
24383;SDS011;12504;52.870;8.798;2023-06-14T03:02:17;6.38;;;3.13;;
24383;SDS011;12504;52.870;8.798;2023-06-14T03:04:44;9.13;;;4.10;;
24383;SDS011;12504;52.870;8.798;2023-06-14T03:07:14;13.63;;;4.47;;
24383;SDS011;12504;52.870;8.798;2023-06-14T03:09:45;5.82;;;3.58;;
24383;SDS011;12504;52.870;8.798;2023-06-14T03:12:11;13.27;;;4.30;;
24383;SDS011;12504;52.870;8.798;2023-06-14T03:14:38;6.50;;;4.32;;
24383;SDS011;12504;52.870;8.798;2023-06-14T03:17:07;7.57;;;4.63;;
24383;SDS011;12504;52.870;8.798;2023-06-14T03:19:35;7.43;;;3.85;;
24383;SDS011;12504;52.870;8.798;2023-06-14T03:22:02;12.35;;;3.80;;
24383;SDS011;12504;52.870;8.798;2023-06-14T03:24:30;9.00;;;3.67;;
24383;SDS011;12504;52.870;8.798;2023-06-14T03:27:04;6.50;;;4.03;;
24383;SDS011;12504;52.870;8.798;2023-06-14T03:29:30;9.00;;;3.63;;
24383;SDS011;12504;52.870;8.798;2023-06-14T03:31:57;6.50;;;3.30;;
24383;SDS011;12504;52.870;8.798;2023-06-14T03:34:32;7.47;;;4.03;;
24383;SDS011;12504;52.870;8.798;2023-06-14T03:36:58;7.90;;;4.43;;
24383;SDS011;12504;52.870;8.798;2023-06-14T03:39:24;8.88;;;3.60;;
24383;SDS011;12504;52.870;8.798;2023-06-14T03:41:50;8.63;;;3.08;;
24383;SDS011;12504;52.870;8.798;2023-06-14T03:44:16;6.07;;;4.35;;
24383;SDS011;12504;52.870;8.798;2023-06-14T03:46:45;6.18;;;4.32;;
24383;SDS011;12504;52.870;8.798;2023-06-14T03:49:12;7.35;;;4.72;;
24383;SDS011;12504;52.870;8.798;2023-06-14T03:51:38;11.43;;;4.13;;
24383;SDS011;12504;52.870;8.798;2023-06-14T03:54:05;7.25;;;3.72;;
24383;SDS011;12504;52.870;8.798;2023-06-14T03:56:31;7.22;;;3.80;;
24383;SDS011;12504;52.870;8.798;2023-06-14T03:58:57;6.85;;;3.60;;
24383;SDS011;12504;52.870;8.798;2023-06-14T04:01:25;11.48;;;4.97;;
24383;SDS011;12504;52.870;8.798;2023-06-14T04:03:56;8.50;;;3.90;;
24383;SDS011;12504;52.870;8.798;2023-06-14T04:06:23;7.75;;;4.15;;
24383;SDS011;12504;52.870;8.798;2023-06-14T04:08:50;8.13;;;4.25;;
24383;SDS011;12504;52.870;8.798;2023-06-14T04:11:17;8.57;;;4.28;;
24383;SDS011;12504;52.870;8.798;2023-06-14T04:13:42;9.07;;;4.13;;
24383;SDS011;12504;52.870;8.798;2023-06-14T04:16:09;10.80;;;4.25;;
24383;SDS011;12504;52.870;8.798;2023-06-14T04:18:35;6.32;;;4.22;;
24383;SDS011;12504;52.870;8.798;2023-06-14T04:21:01;6.50;;;3.80;;
24383;SDS011;12504;52.870;8.798;2023-06-14T04:23:28;8.52;;;5.22;;
24383;SDS011;12504;52.870;8.798;2023-06-14T04:25:54;7.75;;;3.97;;
24383;SDS011;12504;52.870;8.798;2023-06-14T04:28:21;7.50;;;4.63;;
24383;SDS011;12504;52.870;8.798;2023-06-14T04:30:53;9.77;;;4.20;;
24383;SDS011;12504;52.870;8.798;2023-06-14T04:33:19;6.55;;;4.40;;
24383;SDS011;12504;52.870;8.798;2023-06-14T04:35:45;7.78;;;4.65;;
24383;SDS011;12504;52.870;8.798;2023-06-14T04:38:13;6.45;;;3.92;;
24383;SDS011;12504;52.870;8.798;2023-06-14T04:40:40;6.97;;;4.20;;
24383;SDS011;12504;52.870;8.798;2023-06-14T04:43:09;6.65;;;3.97;;
24383;SDS011;12504;52.870;8.798;2023-06-14T04:48:06;6.90;;;4.18;;
24383;SDS011;12504;52.870;8.798;2023-06-14T04:50:32;11.77;;;4.97;;
24383;SDS011;12504;52.870;8.798;2023-06-14T04:52:58;9.32;;;4.60;;
24383;SDS011;12504;52.870;8.798;2023-06-14T04:55:25;12.40;;;4.97;;
24383;SDS011;12504;52.870;8.798;2023-06-14T04:57:51;7.50;;;4.43;;
24383;SDS011;12504;52.870;8.798;2023-06-14T05:00:20;9.32;;;4.63;;
24383;SDS011;12504;52.870;8.798;2023-06-14T05:02:46;14.65;;;4.55;;
24383;SDS011;12504;52.870;8.798;2023-06-14T05:05:14;10.50;;;4.53;;
24383;SDS011;12504;52.870;8.798;2023-06-14T05:07:42;8.57;;;4.55;;
24383;SDS011;12504;52.870;8.798;2023-06-14T05:10:07;10.75;;;4.63;;
24383;SDS011;12504;52.870;8.798;2023-06-14T05:12:34;7.43;;;5.03;;
24383;SDS011;12504;52.870;8.798;2023-06-14T05:15:00;8.48;;;5.05;;
24383;SDS011;12504;52.870;8.798;2023-06-14T05:17:26;8.30;;;5.10;;
24383;SDS011;12504;52.870;8.798;2023-06-14T05:19:53;8.63;;;4.45;;
24383;SDS011;12504;52.870;8.798;2023-06-14T05:22:21;8.95;;;4.75;;
24383;SDS011;12504;52.870;8.798;2023-06-14T05:24:46;10.60;;;5.38;;
24383;SDS011;12504;52.870;8.798;2023-06-14T05:27:13;6.50;;;4.30;;
24383;SDS011;12504;52.870;8.798;2023-06-14T05:29:39;9.43;;;4.68;;
24383;SDS011;12504;52.870;8.798;2023-06-14T05:32:05;10.02;;;4.82;;
24383;SDS011;12504;52.870;8.798;2023-06-14T05:34:31;7.90;;;4.45;;
24383;SDS011;12504;52.870;8.798;2023-06-14T05:36:56;9.88;;;5.07;;
24383;SDS011;12504;52.870;8.798;2023-06-14T05:39:22;13.00;;;4.55;;
24383;SDS011;12504;52.870;8.798;2023-06-14T05:41:49;7.22;;;4.93;;
24383;SDS011;12504;52.870;8.798;2023-06-14T05:44:15;7.53;;;4.60;;
24383;SDS011;12504;52.870;8.798;2023-06-14T05:46:40;5.32;;;4.25;;
24383;SDS011;12504;52.870;8.798;2023-06-14T05:49:06;6.97;;;4.53;;
24383;SDS011;12504;52.870;8.798;2023-06-14T05:51:32;9.73;;;4.90;;
24383;SDS011;12504;52.870;8.798;2023-06-14T05:53:57;8.27;;;4.68;;
24383;SDS011;12504;52.870;8.798;2023-06-14T05:56:23;8.75;;;4.47;;
24383;SDS011;12504;52.870;8.798;2023-06-14T05:58:49;8.05;;;3.97;;
24383;SDS011;12504;52.870;8.798;2023-06-14T06:01:15;7.32;;;4.15;;
24383;SDS011;12504;52.870;8.798;2023-06-14T06:03:41;11.10;;;4.68;;
24383;SDS011;12504;52.870;8.798;2023-06-14T06:06:10;6.33;;;4.23;;
24383;SDS011;12504;52.870;8.798;2023-06-14T06:08:37;7.10;;;4.00;;
24383;SDS011;12504;52.870;8.798;2023-06-14T06:11:03;6.70;;;3.40;;
24383;SDS011;12504;52.870;8.798;2023-06-14T06:13:28;7.65;;;3.80;;
24383;SDS011;12504;52.870;8.798;2023-06-14T06:15:54;5.30;;;3.58;;
24383;SDS011;12504;52.870;8.798;2023-06-14T06:18:20;8.32;;;3.78;;
24383;SDS011;12504;52.870;8.798;2023-06-14T06:20:46;7.72;;;3.58;;
24383;SDS011;12504;52.870;8.798;2023-06-14T06:23:12;9.32;;;3.70;;
24383;SDS011;12504;52.870;8.798;2023-06-14T06:25:38;7.10;;;4.10;;
24383;SDS011;12504;52.870;8.798;2023-06-14T06:28:03;7.90;;;3.72;;
24383;SDS011;12504;52.870;8.798;2023-06-14T06:30:29;7.28;;;4.10;;
24383;SDS011;12504;52.870;8.798;2023-06-14T06:32:55;8.07;;;3.80;;
24383;SDS011;12504;52.870;8.798;2023-06-14T06:35:21;9.07;;;3.80;;
24383;SDS011;12504;52.870;8.798;2023-06-14T06:37:46;9.73;;;3.90;;
24383;SDS011;12504;52.870;8.798;2023-06-14T06:40:12;5.35;;;3.55;;
24383;SDS011;12504;52.870;8.798;2023-06-14T06:42:38;4.72;;;3.28;;
24383;SDS011;12504;52.870;8.798;2023-06-14T06:45:04;4.35;;;3.58;;
24383;SDS011;12504;52.870;8.798;2023-06-14T06:47:31;7.78;;;4.10;;
24383;SDS011;12504;52.870;8.798;2023-06-14T06:49:56;4.50;;;3.25;;
24383;SDS011;12504;52.870;8.798;2023-06-14T06:52:22;6.35;;;3.50;;
24383;SDS011;12504;52.870;8.798;2023-06-14T06:54:47;5.30;;;3.30;;
24383;SDS011;12504;52.870;8.798;2023-06-14T06:57:14;5.20;;;3.50;;
24383;SDS011;12504;52.870;8.798;2023-06-14T06:59:40;6.15;;;3.88;;
24383;SDS011;12504;52.870;8.798;2023-06-14T07:02:05;3.17;;;2.58;;
24383;SDS011;12504;52.870;8.798;2023-06-14T07:04:31;4.60;;;3.40;;
24383;SDS011;12504;52.870;8.798;2023-06-14T07:06:57;5.55;;;3.88;;
24383;SDS011;12504;52.870;8.798;2023-06-14T07:09:22;8.57;;;3.63;;
24383;SDS011;12504;52.870;8.798;2023-06-14T07:11:49;4.75;;;3.08;;
24383;SDS011;12504;52.870;8.798;2023-06-14T07:14:15;5.20;;;3.20;;
24383;SDS011;12504;52.870;8.798;2023-06-14T07:16:41;5.65;;;2.63;;
24383;SDS011;12504;52.870;8.798;2023-06-14T07:19:07;5.30;;;2.55;;
24383;SDS011;12504;52.870;8.798;2023-06-14T07:21:34;3.70;;;2.22;;
24383;SDS011;12504;52.870;8.798;2023-06-14T07:24:00;6.25;;;2.55;;
24383;SDS011;12504;52.870;8.798;2023-06-14T07:26:26;3.58;;;2.60;;
24383;SDS011;12504;52.870;8.798;2023-06-14T07:28:51;3.30;;;2.90;;
24383;SDS011;12504;52.870;8.798;2023-06-14T07:31:17;3.97;;;2.78;;
24383;SDS011;12504;52.870;8.798;2023-06-14T07:33:44;4.00;;;2.55;;
24383;SDS011;12504;52.870;8.798;2023-06-14T07:36:10;2.20;;;2.00;;
24383;SDS011;12504;52.870;8.798;2023-06-14T07:38:36;4.80;;;2.28;;
24383;SDS011;12504;52.870;8.798;2023-06-14T07:41:02;4.50;;;2.83;;
24383;SDS011;12504;52.870;8.798;2023-06-14T07:43:28;5.95;;;2.83;;
24383;SDS011;12504;52.870;8.798;2023-06-14T07:45:53;5.43;;;2.30;;
24383;SDS011;12504;52.870;8.798;2023-06-14T07:48:20;8.10;;;2.83;;
24383;SDS011;12504;52.870;8.798;2023-06-14T07:50:45;3.90;;;2.47;;
24383;SDS011;12504;52.870;8.798;2023-06-14T07:53:11;2.28;;;1.85;;
24383;SDS011;12504;52.870;8.798;2023-06-14T07:55:37;3.38;;;2.45;;
24383;SDS011;12504;52.870;8.798;2023-06-14T07:58:03;3.85;;;2.75;;
24383;SDS011;12504;52.870;8.798;2023-06-14T08:00:29;4.53;;;2.45;;
24383;SDS011;12504;52.870;8.798;2023-06-14T08:02:56;3.22;;;2.22;;
24383;SDS011;12504;52.870;8.798;2023-06-14T08:05:23;4.20;;;2.40;;
24383;SDS011;12504;52.870;8.798;2023-06-14T08:07:52;3.70;;;2.50;;
24383;SDS011;12504;52.870;8.798;2023-06-14T08:10:18;7.13;;;3.08;;
24383;SDS011;12504;52.870;8.798;2023-06-14T08:12:44;4.75;;;2.65;;
24383;SDS011;12504;52.870;8.798;2023-06-14T08:15:10;7.30;;;2.25;;
24383;SDS011;12504;52.870;8.798;2023-06-14T08:17:35;3.10;;;2.22;;
24383;SDS011;12504;52.870;8.798;2023-06-14T08:20:01;5.22;;;2.33;;
24383;SDS011;12504;52.870;8.798;2023-06-14T08:22:29;4.57;;;1.85;;
24383;SDS011;12504;52.870;8.798;2023-06-14T08:24:58;3.00;;;2.70;;
24383;SDS011;12504;52.870;8.798;2023-06-14T08:27:24;4.78;;;2.50;;
24383;SDS011;12504;52.870;8.798;2023-06-14T08:29:50;6.22;;;2.30;;
24383;SDS011;12504;52.870;8.798;2023-06-14T08:32:16;5.15;;;2.35;;
24383;SDS011;12504;52.870;8.798;2023-06-14T08:34:42;5.97;;;2.47;;
24383;SDS011;12504;52.870;8.798;2023-06-14T08:37:07;4.65;;;2.58;;
24383;SDS011;12504;52.870;8.798;2023-06-14T08:39:33;3.47;;;2.67;;
24383;SDS011;12504;52.870;8.798;2023-06-14T08:41:58;3.10;;;2.75;;
24383;SDS011;12504;52.870;8.798;2023-06-14T08:44:26;2.10;;;1.90;;
24383;SDS011;12504;52.870;8.798;2023-06-14T08:46:52;4.10;;;2.67;;
24383;SDS011;12504;52.870;8.798;2023-06-14T08:51:48;2.83;;;2.45;;
24383;SDS011;12504;52.870;8.798;2023-06-14T08:54:19;5.90;;;2.97;;
24383;SDS011;12504;52.870;8.798;2023-06-14T08:56:45;6.30;;;2.78;;
24383;SDS011;12504;52.870;8.798;2023-06-14T08:59:13;5.03;;;2.50;;
24383;SDS011;12504;52.870;8.798;2023-06-14T09:01:40;6.78;;;3.03;;
24383;SDS011;12504;52.870;8.798;2023-06-14T09:04:06;4.93;;;2.70;;
24383;SDS011;12504;52.870;8.798;2023-06-14T09:06:31;7.68;;;2.88;;
24383;SDS011;12504;52.870;8.798;2023-06-14T09:08:58;7.32;;;2.50;;
24383;SDS011;12504;52.870;8.798;2023-06-14T09:11:23;2.83;;;2.50;;
24383;SDS011;12504;52.870;8.798;2023-06-14T09:13:51;5.72;;;2.28;;
24383;SDS011;12504;52.870;8.798;2023-06-14T09:16:16;3.42;;;2.30;;
24383;SDS011;12504;52.870;8.798;2023-06-14T09:18:46;4.28;;;2.30;;
24383;SDS011;12504;52.870;8.798;2023-06-14T09:23:43;3.80;;;2.72;;
24383;SDS011;12504;52.870;8.798;2023-06-14T09:26:12;4.45;;;2.72;;
24383;SDS011;12504;52.870;8.798;2023-06-14T09:28:45;3.60;;;2.28;;
24383;SDS011;12504;52.870;8.798;2023-06-14T09:31:16;5.90;;;2.40;;
24383;SDS011;12504;52.870;8.798;2023-06-14T09:33:43;3.30;;;2.67;;
24383;SDS011;12504;52.870;8.798;2023-06-14T09:36:23;3.13;;;2.42;;
24383;SDS011;12504;52.870;8.798;2023-06-14T09:38:57;4.78;;;2.60;;
24383;SDS011;12504;52.870;8.798;2023-06-14T09:41:35;5.70;;;2.63;;
24383;SDS011;12504;52.870;8.798;2023-06-14T09:44:01;8.05;;;2.55;;
24383;SDS011;12504;52.870;8.798;2023-06-14T09:46:29;13.02;;;3.72;;
24383;SDS011;12504;52.870;8.798;2023-06-14T09:48:55;9.15;;;3.05;;
24383;SDS011;12504;52.870;8.798;2023-06-14T09:51:24;4.38;;;2.35;;
24383;SDS011;12504;52.870;8.798;2023-06-14T09:53:51;6.10;;;2.83;;
24383;SDS011;12504;52.870;8.798;2023-06-14T09:56:41;5.68;;;2.25;;
24383;SDS011;12504;52.870;8.798;2023-06-14T09:59:06;9.65;;;2.63;;
24383;SDS011;12504;52.870;8.798;2023-06-14T10:01:35;3.95;;;2.50;;
24383;SDS011;12504;52.870;8.798;2023-06-14T10:04:06;24.10;;;4.10;;
24383;SDS011;12504;52.870;8.798;2023-06-14T10:06:35;4.90;;;2.30;;
24383;SDS011;12504;52.870;8.798;2023-06-14T10:09:03;4.00;;;2.25;;
24383;SDS011;12504;52.870;8.798;2023-06-14T10:11:31;2.50;;;2.08;;
24383;SDS011;12504;52.870;8.798;2023-06-14T10:14:02;3.45;;;2.40;;
24383;SDS011;12504;52.870;8.798;2023-06-14T10:16:32;5.65;;;2.45;;
24383;SDS011;12504;52.870;8.798;2023-06-14T10:25:01;4.32;;;2.17;;
24383;SDS011;12504;52.870;8.798;2023-06-14T10:27:21;3.72;;;2.42;;
24383;SDS011;12504;52.870;8.798;2023-06-14T10:32:18;2.92;;;2.13;;
24383;SDS011;12504;52.870;8.798;2023-06-14T10:34:52;4.57;;;2.40;;
24383;SDS011;12504;52.870;8.798;2023-06-14T10:37:22;4.10;;;2.33;;
24383;SDS011;12504;52.870;8.798;2023-06-14T10:39:49;4.65;;;2.72;;
24383;SDS011;12504;52.870;8.798;2023-06-14T10:42:15;4.05;;;2.40;;
24383;SDS011;12504;52.870;8.798;2023-06-14T10:44:42;2.72;;;2.47;;
24383;SDS011;12504;52.870;8.798;2023-06-14T10:47:20;7.00;;;2.40;;
24383;SDS011;12504;52.870;8.798;2023-06-14T10:49:50;3.33;;;2.58;;
24383;SDS011;12504;52.870;8.798;2023-06-14T10:52:20;4.75;;;2.53;;
24383;SDS011;12504;52.870;8.798;2023-06-14T10:55:04;3.90;;;2.63;;
24383;SDS011;12504;52.870;8.798;2023-06-14T10:57:36;2.40;;;1.88;;
24383;SDS011;12504;52.870;8.798;2023-06-14T11:00:04;3.70;;;2.08;;
24383;SDS011;12504;52.870;8.798;2023-06-14T11:10:47;3.25;;;2.38;;
24383;SDS011;12504;52.870;8.798;2023-06-14T11:13:13;3.17;;;2.15;;
24383;SDS011;12504;52.870;8.798;2023-06-14T11:15:43;2.40;;;2.00;;
24383;SDS011;12504;52.870;8.798;2023-06-14T11:18:12;3.45;;;2.47;;
24383;SDS011;12504;52.870;8.798;2023-06-14T11:20:39;3.70;;;2.47;;
24383;SDS011;12504;52.870;8.798;2023-06-14T11:23:05;6.88;;;2.83;;
24383;SDS011;12504;52.870;8.798;2023-06-14T11:25:31;4.57;;;2.83;;
24383;SDS011;12504;52.870;8.798;2023-06-14T11:27:57;2.53;;;2.15;;
24383;SDS011;12504;52.870;8.798;2023-06-14T11:30:24;4.53;;;2.95;;
24383;SDS011;12504;52.870;8.798;2023-06-14T11:32:51;2.90;;;2.60;;
24383;SDS011;12504;52.870;8.798;2023-06-14T11:35:18;3.53;;;2.60;;
24383;SDS011;12504;52.870;8.798;2023-06-14T11:37:47;5.05;;;2.90;;
24383;SDS011;12504;52.870;8.798;2023-06-14T11:40:14;3.25;;;2.45;;
24383;SDS011;12504;52.870;8.798;2023-06-14T11:42:40;7.25;;;3.05;;
24383;SDS011;12504;52.870;8.798;2023-06-14T11:45:07;3.45;;;2.70;;
24383;SDS011;12504;52.870;8.798;2023-06-14T11:47:34;4.97;;;2.88;;
24383;SDS011;12504;52.870;8.798;2023-06-14T11:50:01;4.68;;;3.15;;
24383;SDS011;12504;52.870;8.798;2023-06-14T11:52:31;3.40;;;2.80;;
24383;SDS011;12504;52.870;8.798;2023-06-14T11:54:57;3.88;;;2.90;;
24383;SDS011;12504;52.870;8.798;2023-06-14T11:57:24;5.88;;;3.63;;
24383;SDS011;12504;52.870;8.798;2023-06-14T11:59:50;3.80;;;2.85;;
24383;SDS011;12504;52.870;8.798;2023-06-14T12:02:16;4.10;;;3.10;;
24383;SDS011;12504;52.870;8.798;2023-06-14T12:04:46;4.00;;;2.97;;
24383;SDS011;12504;52.870;8.798;2023-06-14T12:07:16;7.28;;;2.88;;
24383;SDS011;12504;52.870;8.798;2023-06-14T12:12:23;3.83;;;2.80;;
24383;SDS011;12504;52.870;8.798;2023-06-14T12:14:52;5.50;;;3.40;;
24383;SDS011;12504;52.870;8.798;2023-06-14T12:17:21;3.85;;;2.78;;
24383;SDS011;12504;52.870;8.798;2023-06-14T12:19:48;4.20;;;3.00;;
24383;SDS011;12504;52.870;8.798;2023-06-14T12:22:15;6.72;;;3.47;;
24383;SDS011;12504;52.870;8.798;2023-06-14T12:24:45;4.47;;;3.13;;
24383;SDS011;12504;52.870;8.798;2023-06-14T12:29:41;5.97;;;3.60;;
24383;SDS011;12504;52.870;8.798;2023-06-14T12:32:08;6.55;;;3.20;;
24383;SDS011;12504;52.870;8.798;2023-06-14T12:34:35;5.13;;;2.63;;
24383;SDS011;12504;52.870;8.798;2023-06-14T12:37:01;4.03;;;2.75;;
24383;SDS011;12504;52.870;8.798;2023-06-14T12:39:29;4.53;;;3.22;;
24383;SDS011;12504;52.870;8.798;2023-06-14T12:41:56;3.88;;;2.97;;
24383;SDS011;12504;52.870;8.798;2023-06-14T12:44:22;4.60;;;2.65;;
24383;SDS011;12504;52.870;8.798;2023-06-14T12:46:48;3.33;;;2.92;;
24383;SDS011;12504;52.870;8.798;2023-06-14T12:49:16;5.95;;;3.63;;
24383;SDS011;12504;52.870;8.798;2023-06-14T12:51:43;4.05;;;2.78;;
24383;SDS011;12504;52.870;8.798;2023-06-14T12:54:09;4.07;;;2.90;;
24383;SDS011;12504;52.870;8.798;2023-06-14T12:56:34;5.40;;;3.22;;
24383;SDS011;12504;52.870;8.798;2023-06-14T12:59:00;5.90;;;3.80;;
24383;SDS011;12504;52.870;8.798;2023-06-14T13:01:26;4.85;;;3.25;;
24383;SDS011;12504;52.870;8.798;2023-06-14T13:03:52;3.33;;;3.00;;
24383;SDS011;12504;52.870;8.798;2023-06-14T13:06:22;4.70;;;3.08;;
24383;SDS011;12504;52.870;8.798;2023-06-14T13:08:48;5.85;;;3.15;;
24383;SDS011;12504;52.870;8.798;2023-06-14T13:11:15;6.13;;;3.30;;
24383;SDS011;12504;52.870;8.798;2023-06-14T13:13:41;8.70;;;4.10;;
24383;SDS011;12504;52.870;8.798;2023-06-14T13:16:06;5.03;;;3.60;;
24383;SDS011;12504;52.870;8.798;2023-06-14T13:18:33;4.43;;;3.42;;
24383;SDS011;12504;52.870;8.798;2023-06-14T13:20:58;7.70;;;3.70;;
24383;SDS011;12504;52.870;8.798;2023-06-14T13:23:24;3.80;;;3.30;;
24383;SDS011;12504;52.870;8.798;2023-06-14T13:25:49;4.70;;;3.38;;
24383;SDS011;12504;52.870;8.798;2023-06-14T13:28:16;5.47;;;4.00;;
24383;SDS011;12504;52.870;8.798;2023-06-14T13:30:42;5.95;;;3.60;;
24383;SDS011;12504;52.870;8.798;2023-06-14T13:33:07;6.45;;;3.67;;
24383;SDS011;12504;52.870;8.798;2023-06-14T13:35:33;6.32;;;3.35;;
24383;SDS011;12504;52.870;8.798;2023-06-14T13:37:59;7.78;;;3.50;;
24383;SDS011;12504;52.870;8.798;2023-06-14T13:40:25;4.63;;;3.33;;
24383;SDS011;12504;52.870;8.798;2023-06-14T13:42:51;6.35;;;3.40;;
24383;SDS011;12504;52.870;8.798;2023-06-14T13:45:16;5.28;;;3.28;;
24383;SDS011;12504;52.870;8.798;2023-06-14T13:47:42;4.85;;;3.53;;
24383;SDS011;12504;52.870;8.798;2023-06-14T13:50:09;7.45;;;3.28;;
24383;SDS011;12504;52.870;8.798;2023-06-14T13:52:35;6.15;;;3.50;;
24383;SDS011;12504;52.870;8.798;2023-06-14T13:55:00;3.95;;;3.05;;
24383;SDS011;12504;52.870;8.798;2023-06-14T13:57:26;3.90;;;3.10;;
24383;SDS011;12504;52.870;8.798;2023-06-14T13:59:52;4.38;;;3.05;;
24383;SDS011;12504;52.870;8.798;2023-06-14T14:02:20;11.05;;;4.30;;
24383;SDS011;12504;52.870;8.798;2023-06-14T14:04:46;5.47;;;3.63;;
24383;SDS011;12504;52.870;8.798;2023-06-14T14:07:17;4.90;;;3.30;;
24383;SDS011;12504;52.870;8.798;2023-06-14T14:09:44;6.45;;;3.80;;
24383;SDS011;12504;52.870;8.798;2023-06-14T14:12:09;9.95;;;3.90;;
24383;SDS011;12504;52.870;8.798;2023-06-14T14:14:36;6.22;;;3.75;;
24383;SDS011;12504;52.870;8.798;2023-06-14T14:17:02;4.05;;;3.28;;
24383;SDS011;12504;52.870;8.798;2023-06-14T14:19:29;5.03;;;3.28;;
24383;SDS011;12504;52.870;8.798;2023-06-14T14:21:54;3.60;;;3.17;;
24383;SDS011;12504;52.870;8.798;2023-06-14T14:24:20;5.97;;;3.80;;
24383;SDS011;12504;52.870;8.798;2023-06-14T14:26:46;8.90;;;4.03;;
24383;SDS011;12504;52.870;8.798;2023-06-14T14:29:13;4.38;;;3.92;;
24383;SDS011;12504;52.870;8.798;2023-06-14T14:31:39;5.82;;;3.00;;
24383;SDS011;12504;52.870;8.798;2023-06-14T14:34:05;7.25;;;4.55;;
24383;SDS011;12504;52.870;8.798;2023-06-14T14:36:31;4.35;;;3.25;;
24383;SDS011;12504;52.870;8.798;2023-06-14T14:38:59;4.55;;;2.90;;
24383;SDS011;12504;52.870;8.798;2023-06-14T14:41:25;5.60;;;3.25;;
24383;SDS011;12504;52.870;8.798;2023-06-14T14:43:51;10.82;;;3.95;;
24383;SDS011;12504;52.870;8.798;2023-06-14T14:46:17;3.22;;;2.80;;
24383;SDS011;12504;52.870;8.798;2023-06-14T14:48:42;8.98;;;2.83;;
24383;SDS011;12504;52.870;8.798;2023-06-14T14:51:08;5.15;;;3.42;;
24383;SDS011;12504;52.870;8.798;2023-06-14T14:53:33;4.20;;;2.95;;
24383;SDS011;12504;52.870;8.798;2023-06-14T14:55:59;3.67;;;3.03;;
24383;SDS011;12504;52.870;8.798;2023-06-14T14:58:25;6.10;;;3.17;;
24383;SDS011;12504;52.870;8.798;2023-06-14T15:00:50;4.15;;;3.05;;
24383;SDS011;12504;52.870;8.798;2023-06-14T15:07:03;4.20;;;3.00;;
24383;SDS011;12504;52.870;8.798;2023-06-14T15:09:29;5.30;;;3.08;;
24383;SDS011;12504;52.870;8.798;2023-06-14T15:11:55;4.43;;;3.15;;
24383;SDS011;12504;52.870;8.798;2023-06-14T15:14:20;5.50;;;3.60;;
24383;SDS011;12504;52.870;8.798;2023-06-14T15:16:46;7.95;;;3.35;;
24383;SDS011;12504;52.870;8.798;2023-06-14T15:19:11;5.32;;;3.33;;
24383;SDS011;12504;52.870;8.798;2023-06-14T15:21:37;5.00;;;3.20;;